createdAt,value
2018-05-24T00:01:25.535Z,6.93
2018-05-24T00:03:53.088Z,4.47
2018-05-24T00:06:20.633Z,3.87
2018-05-24T00:08:48.214Z,3.37
2018-05-24T00:11:15.789Z,4.43
2018-05-24T00:13:43.545Z,4.43
2018-05-24T00:16:11.143Z,3.30
2018-05-24T00:18:38.755Z,5.77
2018-05-24T00:21:06.329Z,4.30
2018-05-24T00:23:33.891Z,4.10
2018-05-24T00:26:01.453Z,5.90
2018-05-24T00:28:29.008Z,4.47
2018-05-24T00:30:56.588Z,7.10
2018-05-24T00:33:24.164Z,3.57
2018-05-24T00:35:51.707Z,5.33
2018-05-24T00:38:19.618Z,5.47
2018-05-24T00:40:47.192Z,4.47
2018-05-24T00:43:16.518Z,3.43
2018-05-24T00:45:44.114Z,4.37
2018-05-24T00:48:11.790Z,4.60
2018-05-24T00:50:39.529Z,8.10
2018-05-24T00:53:07.048Z,3.77
2018-05-24T00:55:40.447Z,4.90
2018-05-24T00:58:08.007Z,5.87
2018-05-24T01:00:35.589Z,3.33
2018-05-24T01:03:03.137Z,4.93
2018-05-24T01:05:30.917Z,5.13
2018-05-24T01:07:58.455Z,4.10
2018-05-24T01:10:26.059Z,3.93
2018-05-24T01:12:54.514Z,5.47
2018-05-24T01:15:22.080Z,4.37
2018-05-24T01:17:49.619Z,5.83
2018-05-24T01:20:17.390Z,3.90
2018-05-24T01:22:45.013Z,6.23
2018-05-24T01:25:12.570Z,4.83
2018-05-24T01:27:40.125Z,5.50
2018-05-24T01:30:07.712Z,4.77
2018-05-24T01:32:35.270Z,5.83
2018-05-24T01:35:02.841Z,7.57
2018-05-24T01:37:42.177Z,7.00
2018-05-24T01:40:09.747Z,4.67
2018-05-24T01:42:37.331Z,7.20
2018-05-24T01:45:05.828Z,4.43
2018-05-24T01:47:33.615Z,7.40
2018-05-24T01:50:01.168Z,3.37
2018-05-24T01:52:28.759Z,6.20
2018-05-24T01:54:56.390Z,3.10
2018-05-24T01:57:24.050Z,2.53
2018-05-24T01:59:51.576Z,7.97
2018-05-24T02:02:20.035Z,7.20
2018-05-24T02:04:47.592Z,7.33
2018-05-24T02:07:15.294Z,6.30
2018-05-24T02:09:42.833Z,4.63
2018-05-24T02:12:11.176Z,3.63
2018-05-24T02:14:38.724Z,6.40
2018-05-24T02:17:06.261Z,5.83
2018-05-24T02:19:33.840Z,5.40
2018-05-24T02:22:01.672Z,5.33
2018-05-24T02:24:29.159Z,5.70
2018-05-24T02:26:56.703Z,6.50
2018-05-24T02:29:24.269Z,5.70
2018-05-24T02:31:51.840Z,5.40
2018-05-24T02:34:19.388Z,4.47
2018-05-24T02:36:46.944Z,5.13
2018-05-24T02:39:14.605Z,6.43
2018-05-24T02:41:42.159Z,5.93
2018-05-24T02:44:09.734Z,6.20
2018-05-24T02:46:37.689Z,8.63
2018-05-24T02:49:05.461Z,7.30
2018-05-24T02:51:33.047Z,6.10
2018-05-24T02:54:00.588Z,6.83
2018-05-24T02:56:28.152Z,7.00
2018-05-24T02:58:55.697Z,7.43
2018-05-24T03:01:23.255Z,5.47
2018-05-24T03:03:50.825Z,6.73
2018-05-24T03:06:18.420Z,6.60
2018-05-24T03:08:46.205Z,8.63
2018-05-24T03:11:13.767Z,8.77
2018-05-24T03:13:41.531Z,4.00
2018-05-24T03:16:09.256Z,6.33
2018-05-24T03:18:36.913Z,5.70
2018-05-24T03:21:04.503Z,6.43
2018-05-24T03:23:32.036Z,5.77
2018-05-24T03:25:59.588Z,6.13
2018-05-24T03:28:27.130Z,6.43
2018-05-24T03:30:54.696Z,6.60
2018-05-24T03:33:22.239Z,9.43
2018-05-24T03:35:49.894Z,6.77
2018-05-24T03:38:17.452Z,7.00
2018-05-24T03:40:45.214Z,6.70
2018-05-24T03:43:12.886Z,6.47
2018-05-24T03:45:40.539Z,5.60
2018-05-24T03:48:08.165Z,7.27
2018-05-24T03:50:35.743Z,7.93
2018-05-24T03:53:03.484Z,6.27
2018-05-24T03:55:31.022Z,8.27
2018-05-24T03:57:58.572Z,6.93
2018-05-24T04:00:37.832Z,6.53
2018-05-24T04:03:17.055Z,9.10
2018-05-24T04:05:45.450Z,11.50
2018-05-24T04:08:12.964Z,7.60
2018-05-24T04:10:41.729Z,9.03
2018-05-24T04:13:09.295Z,7.53
2018-05-24T04:15:36.855Z,6.13
2018-05-24T04:18:04.440Z,5.80
2018-05-24T04:20:32.233Z,6.20
2018-05-24T04:23:00.563Z,6.07
2018-05-24T04:25:28.147Z,6.87
2018-05-24T04:27:55.734Z,7.47
2018-05-24T04:30:23.286Z,5.00
2018-05-24T04:32:50.865Z,6.83
2018-05-24T04:35:18.441Z,7.00
2018-05-24T04:37:46.126Z,7.03
2018-05-24T04:40:13.708Z,7.77
2018-05-24T04:42:42.077Z,6.40
2018-05-24T04:45:09.636Z,7.87
2018-05-24T04:47:37.199Z,7.87
2018-05-24T04:50:04.775Z,11.63
2018-05-24T04:52:32.347Z,7.37
2018-05-24T04:54:59.948Z,6.43
2018-05-24T04:57:28.284Z,6.97
2018-05-24T04:59:55.855Z,5.70
2018-05-24T05:02:24.171Z,8.03
2018-05-24T05:04:51.889Z,6.90
2018-05-24T05:07:20.197Z,10.07
2018-05-24T05:09:47.758Z,7.50
2018-05-24T05:12:15.319Z,8.27
2018-05-24T05:14:42.893Z,5.27
2018-05-24T05:17:10.446Z,7.67
2018-05-24T05:19:38.356Z,5.80
2018-05-24T05:22:05.909Z,11.47
2018-05-24T05:24:33.546Z,8.80
2018-05-24T05:27:01.175Z,7.73
2018-05-24T05:29:28.919Z,6.27
2018-05-24T05:31:56.491Z,6.37
2018-05-24T05:34:24.069Z,10.30
2018-05-24T05:36:51.729Z,8.50
2018-05-24T05:39:19.305Z,8.60
2018-05-24T05:41:46.958Z,6.53
2018-05-24T05:44:14.528Z,7.73
2018-05-24T05:46:42.111Z,6.17
2018-05-24T05:49:09.753Z,8.43
2018-05-24T05:51:37.316Z,8.80
2018-05-24T05:54:04.904Z,6.17
2018-05-24T05:56:32.471Z,10.60
2018-05-24T05:59:00.804Z,6.63
2018-05-24T06:01:28.382Z,8.13
2018-05-24T06:03:55.927Z,10.27
2018-05-24T06:06:23.528Z,10.83
2018-05-24T06:08:51.104Z,8.17
2018-05-24T06:11:19.429Z,12.57
2018-05-24T06:13:47.059Z,10.47
2018-05-24T06:16:14.623Z,8.10
2018-05-24T06:18:42.214Z,9.50
2018-05-24T06:21:09.777Z,7.47
2018-05-24T06:23:37.375Z,8.97
2018-05-24T06:26:04.933Z,13.63
2018-05-24T06:28:33.451Z,8.20
2018-05-24T06:31:00.859Z,7.47
2018-05-24T06:33:28.423Z,7.80
2018-05-24T06:35:56.180Z,11.30
2018-05-24T06:38:24.531Z,9.13
2018-05-24T06:40:52.101Z,10.43
2018-05-24T06:43:19.675Z,9.57
2018-05-24T06:45:49.018Z,11.33
2018-05-24T06:48:16.604Z,7.20
2018-05-24T06:50:44.192Z,6.50
2018-05-24T06:53:11.799Z,6.67
2018-05-24T06:55:39.535Z,5.23
2018-05-24T06:58:07.852Z,11.53
2018-05-24T07:00:35.515Z,9.33
2018-05-24T07:03:03.079Z,7.60
2018-05-24T07:05:30.675Z,7.30
2018-05-24T07:08:05.225Z,6.07
2018-05-24T07:10:32.813Z,5.23
2018-05-24T07:13:00.451Z,7.53
2018-05-24T07:15:28.229Z,6.60
2018-05-24T07:17:55.808Z,8.23
2018-05-24T07:20:23.397Z,10.47
2018-05-24T07:22:50.953Z,7.40
2018-05-24T07:27:39.327Z,6.93
2018-05-24T07:30:07.705Z,6.50
2018-05-24T07:32:36.127Z,6.93
2018-05-24T07:35:03.705Z,7.07
2018-05-24T07:37:32.040Z,6.70
2018-05-24T07:39:59.929Z,6.30
2018-05-24T07:42:27.526Z,10.90
2018-05-24T07:44:55.092Z,8.17
2018-05-24T07:47:22.673Z,8.67
2018-05-24T07:49:50.250Z,6.77
2018-05-24T07:52:18.616Z,8.07
2018-05-24T07:54:46.232Z,6.23
2018-05-24T07:57:13.790Z,6.10
2018-05-24T07:59:41.371Z,8.00
2018-05-24T08:02:08.974Z,6.80
2018-05-24T08:04:36.558Z,10.83
2018-05-24T08:07:04.174Z,9.07
2018-05-24T08:09:31.782Z,13.80
2018-05-24T08:11:59.363Z,6.77
2018-05-24T08:14:26.890Z,8.40
2018-05-24T08:16:54.478Z,8.23
2018-05-24T08:19:22.055Z,9.07
2018-05-24T08:21:49.674Z,5.90
2018-05-24T08:24:17.360Z,7.53
2018-05-24T08:26:44.908Z,6.83
2018-05-24T08:29:12.516Z,6.53
2018-05-24T08:31:41.332Z,5.87
2018-05-24T08:34:09.095Z,6.67
2018-05-24T08:36:36.640Z,6.37
2018-05-24T08:39:05.137Z,6.43
2018-05-24T08:41:32.716Z,5.87
2018-05-24T08:44:00.496Z,6.47
2018-05-24T08:46:28.135Z,6.37
2018-05-24T08:48:55.737Z,5.50
2018-05-24T08:51:23.283Z,5.67
2018-05-24T08:53:50.904Z,5.43
2018-05-24T08:56:18.566Z,5.77
2018-05-24T08:58:46.156Z,8.43
2018-05-24T09:01:13.783Z,6.77
2018-05-24T09:03:41.388Z,7.43
2018-05-24T09:06:08.990Z,4.97
2018-05-24T09:08:36.625Z,6.50
2018-05-24T09:11:05.003Z,5.93
2018-05-24T09:13:33.395Z,6.20
2018-05-24T09:16:01.825Z,7.63
2018-05-24T09:18:29.597Z,5.70
2018-05-24T09:20:57.335Z,6.47
2018-05-24T09:23:24.948Z,7.67
2018-05-24T09:25:52.551Z,5.37
2018-05-24T09:28:20.322Z,8.13
2018-05-24T09:30:47.906Z,6.60
2018-05-24T09:33:15.591Z,6.47
2018-05-24T09:35:43.331Z,6.83
2018-05-24T09:38:11.040Z,6.33
2018-05-24T09:40:39.382Z,5.67
2018-05-24T09:43:08.478Z,5.20
2018-05-24T09:45:36.078Z,8.63
2018-05-24T09:48:03.673Z,7.57
2018-05-24T09:50:31.216Z,5.17
2018-05-24T09:52:58.856Z,4.50
2018-05-24T09:55:26.466Z,7.17
2018-05-24T09:57:53.955Z,4.80
2018-05-24T10:00:23.223Z,6.60
2018-05-24T10:02:50.798Z,6.97
2018-05-24T10:05:18.947Z,4.47
2018-05-24T10:07:46.689Z,7.13
2018-05-24T10:10:14.294Z,7.03
2018-05-24T10:12:42.045Z,6.97
2018-05-24T10:15:09.674Z,7.37
2018-05-24T10:17:37.262Z,9.23
2018-05-24T10:20:04.859Z,7.83
2018-05-24T10:22:32.621Z,6.63
2018-05-24T10:25:01.013Z,4.97
2018-05-24T10:27:28.584Z,6.03
2018-05-24T10:29:56.934Z,4.70
2018-05-24T10:32:24.485Z,3.70
2018-05-24T10:34:52.045Z,4.97
2018-05-24T10:37:20.017Z,7.37
2018-05-24T10:39:47.621Z,6.17
2018-05-24T10:42:15.282Z,5.33
2018-05-24T10:44:42.848Z,4.97
2018-05-24T10:47:11.110Z,3.73
2018-05-24T10:49:38.885Z,4.80
2018-05-24T10:52:06.421Z,4.13
2018-05-24T10:54:34.041Z,7.17
2018-05-24T10:57:01.615Z,4.30
2018-05-24T10:59:29.358Z,4.70
2018-05-24T11:01:56.922Z,5.43
2018-05-24T11:04:24.512Z,5.00
2018-05-24T11:06:52.830Z,4.63
2018-05-24T11:09:20.469Z,5.03
2018-05-24T11:11:48.116Z,7.97
2018-05-24T11:14:15.618Z,7.37
2018-05-24T11:16:43.417Z,6.00
2018-05-24T11:19:11.083Z,5.90
2018-05-24T11:21:38.689Z,7.50
2018-05-24T11:24:06.254Z,7.30
2018-05-24T11:26:33.814Z,5.80
2018-05-24T11:29:01.410Z,5.67
2018-05-24T11:31:28.982Z,7.20
2018-05-24T11:33:57.325Z,6.13
2018-05-24T11:36:25.274Z,6.43
2018-05-24T11:38:52.834Z,5.40
2018-05-24T11:41:20.549Z,6.30
2018-05-24T11:43:48.235Z,5.67
2018-05-24T11:46:15.777Z,6.27
2018-05-24T11:48:44.339Z,5.73
2018-05-24T11:51:12.109Z,5.70
2018-05-24T11:53:39.684Z,5.57
2018-05-24T11:56:07.498Z,6.80
2018-05-24T11:58:35.281Z,5.63
2018-05-24T12:01:02.854Z,5.00
2018-05-24T12:03:30.439Z,4.97
2018-05-24T12:05:58.790Z,5.00
2018-05-24T12:08:26.699Z,5.93
2018-05-24T12:10:54.270Z,4.00
2018-05-24T12:13:21.905Z,5.60
2018-05-24T12:15:50.513Z,5.43
2018-05-24T12:18:18.184Z,6.00
2018-05-24T12:20:45.797Z,5.20
2018-05-24T12:23:13.363Z,5.40
2018-05-24T12:25:41.676Z,6.07
2018-05-24T12:28:09.265Z,8.63
2018-05-24T12:30:36.822Z,7.30
2018-05-24T12:33:04.403Z,10.20
2018-05-24T12:35:32.184Z,10.77
2018-05-24T12:37:59.678Z,11.13
2018-05-24T12:40:27.424Z,10.83
2018-05-24T12:42:55.036Z,12.07
2018-05-24T12:45:22.617Z,12.10
2018-05-24T12:47:50.529Z,12.03
2018-05-24T12:50:18.322Z,12.13
2018-05-24T12:52:45.883Z,11.37
2018-05-24T12:55:13.612Z,13.00
2018-05-24T12:57:41.192Z,12.20
2018-05-24T13:00:08.968Z,13.33
2018-05-24T13:02:36.548Z,12.97
2018-05-24T13:05:04.153Z,12.23
2018-05-24T13:07:31.737Z,15.70
2018-05-24T13:10:00.109Z,14.53
2018-05-24T13:12:27.725Z,13.53
2018-05-24T13:14:56.090Z,13.90
2018-05-24T13:17:23.687Z,15.40
2018-05-24T13:19:51.278Z,14.70
2018-05-24T13:22:18.855Z,14.00
2018-05-24T13:24:46.482Z,14.60
2018-05-24T13:27:14.068Z,15.63
2018-05-24T13:29:41.824Z,16.90
2018-05-24T13:32:09.457Z,15.97
2018-05-24T13:34:37.142Z,17.40
2018-05-24T13:37:04.751Z,15.40
2018-05-24T13:39:32.646Z,15.67
2018-05-24T13:42:00.219Z,16.87
2018-05-24T13:44:27.806Z,16.27
2018-05-24T13:46:55.591Z,18.00
2018-05-24T13:49:23.308Z,15.97
2018-05-24T13:51:51.099Z,14.93
2018-05-24T13:54:18.671Z,16.90
2018-05-24T13:56:46.276Z,16.23
2018-05-24T13:59:13.899Z,15.33
2018-05-24T14:01:41.668Z,14.53
2018-05-24T14:04:09.243Z,14.97
2018-05-24T14:09:05.946Z,16.50
2018-05-24T14:11:33.579Z,17.03
2018-05-24T14:14:01.172Z,14.27
2018-05-24T14:16:28.776Z,15.17
2018-05-24T14:18:57.235Z,15.77
2018-05-24T14:21:24.827Z,16.70
2018-05-24T14:23:52.495Z,15.37
2018-05-24T14:26:20.078Z,16.30
2018-05-24T14:28:47.689Z,18.50
2018-05-24T14:31:16.044Z,14.10
2018-05-24T14:33:44.423Z,16.83
2018-05-24T14:36:12.122Z,13.70
2018-05-24T14:38:39.829Z,13.47
2018-05-24T14:41:07.611Z,13.80
2018-05-24T14:43:35.185Z,14.10
2018-05-24T14:46:03.096Z,14.60
2018-05-24T14:48:30.660Z,13.43
2018-05-24T14:50:58.314Z,13.43
2018-05-24T14:53:26.065Z,15.07
2018-05-24T14:55:53.673Z,15.43
2018-05-24T14:58:21.305Z,16.27
2018-05-24T15:00:48.927Z,13.37
2018-05-24T15:03:21.813Z,13.33
2018-05-24T15:05:50.184Z,12.73
2018-05-24T15:08:18.583Z,13.40
2018-05-24T15:10:46.185Z,13.37
2018-05-24T15:13:25.526Z,14.60
2018-05-24T15:15:53.099Z,14.33
2018-05-24T15:18:20.779Z,13.10
2018-05-24T15:20:49.184Z,15.37
2018-05-24T15:23:16.781Z,13.03
2018-05-24T15:25:44.372Z,13.20
2018-05-24T15:28:13.038Z,13.97
2018-05-24T15:30:40.687Z,13.40
2018-05-24T15:33:08.361Z,16.27
2018-05-24T15:35:36.111Z,14.23
2018-05-24T15:38:03.739Z,12.80
2018-05-24T15:40:31.349Z,12.27
2018-05-24T15:42:58.970Z,12.67
2018-05-24T15:45:26.593Z,13.77
2018-05-24T15:47:54.187Z,12.97
2018-05-24T15:50:21.871Z,13.07
2018-05-24T15:52:49.448Z,13.03
2018-05-24T15:55:17.046Z,15.10
2018-05-24T15:57:44.653Z,13.47
2018-05-24T16:00:12.286Z,14.53
2018-05-24T16:02:39.869Z,13.43
2018-05-24T16:05:07.541Z,13.57
2018-05-24T16:07:35.318Z,16.57
2018-05-24T16:10:03.442Z,14.77
2018-05-24T16:12:31.089Z,18.20
2018-05-24T16:14:59.013Z,17.00
2018-05-24T16:17:27.427Z,18.13
2018-05-24T16:19:55.110Z,18.83
2018-05-24T16:22:22.992Z,17.97
2018-05-24T16:24:50.589Z,17.63
2018-05-24T16:27:18.505Z,19.43
2018-05-24T16:29:46.085Z,18.23
2018-05-24T16:32:13.739Z,18.47
2018-05-24T16:34:41.620Z,18.30
2018-05-24T16:37:09.252Z,18.37
2018-05-24T16:39:36.836Z,17.63
2018-05-24T16:42:04.454Z,20.13
2018-05-24T16:44:32.126Z,19.73
2018-05-24T16:46:59.919Z,18.03
2018-05-24T16:49:27.600Z,18.23
2018-05-24T16:51:55.393Z,17.50
2018-05-24T16:54:23.862Z,18.80
2018-05-24T16:56:51.497Z,17.97
2018-05-24T16:59:19.094Z,17.33
2018-05-24T17:01:46.714Z,19.27
2018-05-24T17:04:14.340Z,18.20
2018-05-24T17:06:41.949Z,18.87
2018-05-24T17:09:09.622Z,19.20
2018-05-24T17:11:37.249Z,17.27
2018-05-24T17:14:04.915Z,18.63
2018-05-24T17:16:32.565Z,17.80
2018-05-24T17:19:00.288Z,17.57
2018-05-24T17:21:28.673Z,17.13
2018-05-24T17:23:56.651Z,22.50
2018-05-24T17:26:24.231Z,18.30
2018-05-24T17:28:52.918Z,18.53
2018-05-24T17:31:20.508Z,18.40
2018-05-24T17:33:48.144Z,18.17
2018-05-24T17:36:15.728Z,17.27
2018-05-24T17:38:43.567Z,19.97
2018-05-24T17:41:11.188Z,19.10
2018-05-24T17:43:38.859Z,19.03
2018-05-24T17:46:06.679Z,18.90
2018-05-24T17:48:34.336Z,19.40
2018-05-24T17:51:02.448Z,19.83
2018-05-24T17:53:30.069Z,20.10
2018-05-24T17:55:57.723Z,19.73
2018-05-24T17:58:25.369Z,19.63
2018-05-24T18:00:52.995Z,19.33
2018-05-24T18:03:21.439Z,20.03
2018-05-24T18:05:49.029Z,21.27
2018-05-24T18:08:16.868Z,19.97
2018-05-24T18:10:44.616Z,20.80
2018-05-24T18:13:12.233Z,22.03
2018-05-24T18:15:40.014Z,21.33
2018-05-24T18:18:07.674Z,21.20
2018-05-24T18:20:35.502Z,23.17
2018-05-24T18:23:04.008Z,22.30
2018-05-24T18:25:32.585Z,21.40
2018-05-24T18:28:00.316Z,22.23
2018-05-24T18:30:27.967Z,23.63
2018-05-24T18:32:55.589Z,22.73
2018-05-24T18:35:23.190Z,23.50
2018-05-24T18:37:50.860Z,24.10
2018-05-24T18:40:20.042Z,24.03
2018-05-24T18:42:47.941Z,25.67
2018-05-24T18:45:15.634Z,23.80
2018-05-24T18:47:43.434Z,24.90
2018-05-24T18:50:11.164Z,25.17
2018-05-24T18:52:39.056Z,24.87
2018-05-24T18:55:06.810Z,25.03
2018-05-24T18:57:34.414Z,24.83
2018-05-24T19:00:02.045Z,24.90
2018-05-24T19:02:29.986Z,23.10
2018-05-24T19:04:57.817Z,21.13
2018-05-24T19:07:25.430Z,22.30
2018-05-24T19:09:53.024Z,21.20
2018-05-24T19:12:20.637Z,25.07
2018-05-24T19:14:48.228Z,21.10
2018-05-24T19:17:17.348Z,23.63
2018-05-24T19:19:45.326Z,21.70
2018-05-24T19:22:13.676Z,20.37
2018-05-24T19:24:41.486Z,19.93
2018-05-24T19:27:09.136Z,21.47
2018-05-24T19:29:37.552Z,21.50
2018-05-24T19:32:05.540Z,19.97
2018-05-24T19:34:33.324Z,18.93
2018-05-24T19:37:01.165Z,21.60
2018-05-24T19:39:28.827Z,18.40
2018-05-24T19:41:56.448Z,18.50
2018-05-24T19:44:24.929Z,18.13
2018-05-24T19:46:52.578Z,17.27
2018-05-24T19:49:20.203Z,17.50
2018-05-24T19:51:47.830Z,18.73
2018-05-24T19:54:15.480Z,18.73
2018-05-24T19:56:43.148Z,19.73
2018-05-24T19:59:10.798Z,18.00
2018-05-24T20:01:38.661Z,19.00
2018-05-24T20:04:06.296Z,18.13
2018-05-24T20:06:34.737Z,18.10
2018-05-24T20:09:02.560Z,18.00
2018-05-24T20:11:30.307Z,17.77
2018-05-24T20:13:57.946Z,17.47
2018-05-24T20:16:25.543Z,16.90
2018-05-24T20:18:53.226Z,17.57
2018-05-24T20:21:20.827Z,16.07
2018-05-24T20:23:49.198Z,16.97
2018-05-24T20:26:16.969Z,19.07
2018-05-24T20:28:44.546Z,17.83
2018-05-24T20:31:13.145Z,16.67
2018-05-24T20:33:40.894Z,16.77
2018-05-24T20:36:09.316Z,17.80
2018-05-24T20:38:37.161Z,17.00
2018-05-24T20:41:04.748Z,18.70
2018-05-24T20:43:32.381Z,14.70
2018-05-24T20:45:59.985Z,14.73
2018-05-24T20:48:28.374Z,18.90
2018-05-24T20:50:55.937Z,18.90
2018-05-24T20:53:23.727Z,20.77
2018-05-24T20:55:51.505Z,18.77
2018-05-24T20:58:19.860Z,15.77
2018-05-24T21:00:47.486Z,17.07
2018-05-24T21:03:15.119Z,16.97
2018-05-24T21:05:42.705Z,15.17
2018-05-24T21:08:10.360Z,14.97
2018-05-24T21:10:37.985Z,16.30
2018-05-24T21:13:05.603Z,15.23
2018-05-24T21:15:33.266Z,15.20
2018-05-24T21:18:00.857Z,15.13
2018-05-24T21:20:29.203Z,15.97
2018-05-24T21:22:56.778Z,18.97
2018-05-24T21:25:24.404Z,15.17
2018-05-24T21:27:52.044Z,18.47
2018-05-24T21:30:19.899Z,14.73
2018-05-24T21:32:47.457Z,16.57
2018-05-24T21:35:15.045Z,18.90
2018-05-24T21:37:42.741Z,15.93
2018-05-24T21:40:10.286Z,17.03
2018-05-24T21:42:37.908Z,14.60
2018-05-24T21:45:05.501Z,16.80
2018-05-24T21:47:33.335Z,16.97
2018-05-24T21:50:00.929Z,21.50
2018-05-24T21:52:28.500Z,17.60
2018-05-24T21:54:56.116Z,17.23
2018-05-24T21:57:23.746Z,16.13
2018-05-24T21:59:51.337Z,17.97
2018-05-24T22:02:19.099Z,20.23
2018-05-24T22:04:46.817Z,16.67
2018-05-24T22:07:14.420Z,16.60
2018-05-24T22:09:42.356Z,16.10
2018-05-24T22:12:10.709Z,17.13
2018-05-24T22:14:39.148Z,16.93
2018-05-24T22:17:06.783Z,16.80
2018-05-24T22:19:34.345Z,18.60
2018-05-24T22:22:02.153Z,15.10
2018-05-24T22:24:29.757Z,16.87
2018-05-24T22:26:58.134Z,16.83
2018-05-24T22:29:25.747Z,16.70
2018-05-24T22:31:53.331Z,15.53
2018-05-24T22:34:20.933Z,15.90
2018-05-24T22:36:48.716Z,15.77
2018-05-24T22:39:16.310Z,15.63
2018-05-24T22:41:43.924Z,16.10
2018-05-24T22:44:11.482Z,17.40
2018-05-24T22:46:39.056Z,16.13
2018-05-24T22:49:06.656Z,17.87
2018-05-24T22:51:34.307Z,15.23
2018-05-24T22:54:01.878Z,15.97
2018-05-24T22:56:29.544Z,15.30
2018-05-24T22:58:57.099Z,15.60
2018-05-24T23:01:26.220Z,13.33
2018-05-24T23:03:53.810Z,15.67
2018-05-24T23:06:21.781Z,15.30
2018-05-24T23:08:49.357Z,14.23
2018-05-24T23:11:16.959Z,16.07
2018-05-24T23:13:44.626Z,14.50
2018-05-24T23:16:13.029Z,16.07
2018-05-24T23:18:40.572Z,13.97
2018-05-24T23:21:08.207Z,19.23
2018-05-24T23:23:36.681Z,15.10
2018-05-24T23:26:04.259Z,14.10
2018-05-24T23:28:31.869Z,16.87
2018-05-24T23:30:59.445Z,14.67
2018-05-24T23:33:27.049Z,16.90
2018-05-24T23:35:54.670Z,21.53
2018-05-24T23:38:22.240Z,18.40
2018-05-24T23:40:49.813Z,19.63
2018-05-24T23:43:17.519Z,18.87
2018-05-24T23:45:45.107Z,16.83
2018-05-24T23:48:12.712Z,18.73
2018-05-24T23:50:40.440Z,21.97
2018-05-24T23:53:07.992Z,17.90
2018-05-24T23:55:35.704Z,17.63
2018-05-24T23:58:03.276Z,18.67
